Time;durP1;ratioP1;P1;durP2;ratioP2;P2;SDS_P1;SDS_P2;PMS_P1;PMS_P2;Temp;Humidity;BMP_temperature;BMP_pressure;BME280_temperature;BME280_humidity;BME280_pressure;Samples;Min_cycle;Max_cycle;Signal;HPM_P1;HPM_P2
2021/07/06 00:02:26;;;;;;;11.65;8.30;;;16.80;99.90;;;;;;5049948;28;20136;-78
2021/07/06 00:04:59;;;;;;;9.95;8.07;;;16.80;99.90;;;;;;5033898;28;20057;-78
2021/07/06 00:07:27;;;;;;;12.40;8.40;;;16.80;99.90;;;;;;5034071;28;20091;-78
2021/07/06 00:09:55;;;;;;;14.65;8.63;;;16.80;99.90;;;;;;5033651;28;20045;-78
2021/07/06 00:12:23;;;;;;;13.20;9.43;;;16.80;99.90;;;;;;5049589;28;20120;-78
2021/07/06 00:14:51;;;;;;;11.07;9.10;;;16.80;99.90;;;;;;5033573;28;20041;-79
2021/07/06 00:17:19;;;;;;;15.02;10.05;;;16.80;99.90;;;;;;5033309;28;20049;-81
2021/07/06 00:19:47;;;;;;;15.23;10.25;;;16.80;99.90;;;;;;5049679;28;20103;-81
2021/07/06 00:22:15;;;;;;;16.05;9.95;;;16.80;99.90;;;;;;5049419;28;20051;-81
2021/07/06 00:24:42;;;;;;;13.23;10.35;;;16.80;99.90;;;;;;5033380;28;20058;-81
2021/07/06 00:27:09;;;;;;;13.85;10.07;;;16.80;99.90;;;;;;5049756;28;20072;-81
2021/07/06 00:29:36;;;;;;;12.25;10.15;;;16.80;99.90;;;;;;5033300;28;20044;-82
2021/07/06 00:32:04;;;;;;;16.58;11.15;;;16.70;99.90;;;;;;5049666;28;20108;-82
2021/07/06 00:34:31;;;;;;;13.40;10.20;;;16.70;99.90;;;;;;5049449;28;20049;-81
2021/07/06 00:36:58;;;;;;;14.63;11.18;;;16.80;99.90;;;;;;5049732;28;20088;-81
2021/07/06 00:39:25;;;;;;;15.65;10.38;;;16.70;99.90;;;;;;5032915;28;20041;-81
2021/07/06 00:41:52;;;;;;;15.45;9.95;;;16.70;99.90;;;;;;5049604;28;20053;-81
2021/07/06 00:44:20;;;;;;;13.57;9.38;;;16.70;99.90;;;;;;5049349;28;20509;-81
2021/07/06 00:46:48;;;;;;;13.85;10.05;;;16.80;99.90;;;;;;5033343;28;20049;-81
2021/07/06 00:49:15;;;;;;;13.75;10.43;;;16.80;99.90;;;;;;5049232;28;20127;-81
2021/07/06 00:51:42;;;;;;;14.05;10.27;;;16.80;99.90;;;;;;5049534;28;20052;-81
2021/07/06 00:54:11;;;;;;;14.07;9.88;;;16.80;99.90;;;;;;5033141;28;20053;-81
2021/07/06 00:56:38;;;;;;;17.85;10.10;;;16.80;99.90;;;;;;5033177;28;20049;-81
2021/07/06 00:59:05;;;;;;;12.82;10.05;;;16.90;99.90;;;;;;5033258;28;20053;-81
2021/07/06 01:01:32;;;;;;;12.57;9.50;;;16.90;99.90;;;;;;5032912;28;20049;-81
2021/07/06 01:03:58;;;;;;;14.27;9.35;;;16.90;99.90;;;;;;5033155;28;20053;-81
2021/07/06 01:06:26;;;;;;;14.13;9.55;;;16.90;99.90;;;;;;5032827;28;20050;-81
2021/07/06 01:08:53;;;;;;;15.30;9.75;;;17.00;99.90;;;;;;5049381;28;20084;-83
2021/07/06 01:11:21;;;;;;;12.13;9.40;;;17.00;99.90;;;;;;5049161;28;20041;-81
2021/07/06 01:13:49;;;;;;;16.27;9.32;;;17.00;99.90;;;;;;5049222;28;20053;-81
2021/07/06 01:16:17;;;;;;;13.70;9.77;;;17.00;99.90;;;;;;5017134;28;20055;-81
2021/07/06 01:18:44;;;;;;;12.68;9.57;;;17.00;99.90;;;;;;5033036;28;20049;-81
2021/07/06 01:21:12;;;;;;;13.55;9.75;;;17.00;99.90;;;;;;5049331;28;20056;-80
2021/07/06 01:23:39;;;;;;;10.43;9.25;;;17.00;99.90;;;;;;5049012;28;20129;-81
2021/07/06 01:26:08;;;;;;;12.68;9.05;;;17.00;99.90;;;;;;5049280;28;20116;-81
2021/07/06 01:28:38;;;;;;;14.77;9.60;;;16.90;99.90;;;;;;5048885;28;20478;-81
2021/07/06 01:31:04;;;;;;;15.00;9.73;;;17.00;99.90;;;;;;5050962;28;20041;-80
2021/07/06 01:33:35;;;;;;;14.05;9.57;;;17.00;99.90;;;;;;5036316;28;20116;-81
2021/07/06 01:36:07;;;;;;;11.15;9.10;;;17.00;99.90;;;;;;5052756;28;20072;-81
2021/07/06 01:38:35;;;;;;;12.90;8.68;;;16.90;99.90;;;;;;5036358;28;20058;-81
2021/07/06 01:41:05;;;;;;;13.65;9.25;;;16.90;99.90;;;;;;5036557;28;20429;-80
2021/07/06 01:43:32;;;;;;;11.00;7.97;;;17.00;99.90;;;;;;5069962;28;20469;-80
2021/07/06 01:45:59;;;;;;;13.15;8.15;;;16.90;99.90;;;;;;5036314;28;20168;-79
2021/07/06 01:48:26;;;;;;;12.43;8.48;;;16.90;99.90;;;;;;5036233;28;20079;-79
2021/07/06 01:50:53;;;;;;;11.75;7.80;;;16.90;99.90;;;;;;5020013;28;20050;-80
2021/07/06 01:53:22;;;;;;;12.55;8.07;;;16.90;99.90;;;;;;5036168;28;20098;-80
2021/07/06 01:55:50;;;;;;;11.32;7.90;;;16.90;99.90;;;;;;5068903;28;20044;-80
2021/07/06 01:58:19;;;;;;;9.13;7.15;;;16.90;99.90;;;;;;5052444;28;20050;-80
2021/07/06 02:00:56;;;;;;;12.98;7.60;;;16.90;99.90;;;;;;5068467;28;20041;-79
2021/07/06 02:03:23;;;;;;;9.68;7.63;;;17.00;99.90;;;;;;5068605;28;20052;-80
2021/07/06 02:05:55;;;;;;;9.98;7.03;;;16.90;99.90;;;;;;5052616;28;20091;-79
2021/07/06 02:08:22;;;;;;;10.52;6.88;;;16.90;99.90;;;;;;5068767;28;20073;-79
2021/07/06 02:10:52;;;;;;;12.63;6.85;;;16.90;99.90;;;;;;5052285;28;20470;-79
2021/07/06 02:13:23;;;;;;;8.93;6.55;;;17.00;99.90;;;;;;5052095;28;20049;-80
2021/07/06 02:15:53;;;;;;;9.20;6.20;;;16.90;99.90;;;;;;5068725;28;20046;-80
2021/07/06 02:18:22;;;;;;;10.07;6.15;;;17.00;99.90;;;;;;5052176;28;20593;-80
2021/07/06 02:20:53;;;;;;;9.05;5.80;;;17.00;99.90;;;;;;5035623;28;20069;-79
2021/07/06 02:23:22;;;;;;;10.35;6.60;;;16.90;99.90;;;;;;5051707;28;20501;-80
2021/07/06 02:25:50;;;;;;;9.50;6.50;;;16.90;99.90;;;;;;5067944;28;20053;-80
2021/07/06 02:28:18;;;;;;;9.55;6.28;;;16.90;99.90;;;;;;5068271;28;20038;-79
2021/07/06 02:30:45;;;;;;;10.02;6.28;;;16.90;99.90;;;;;;5051587;28;20072;-80
2021/07/06 02:33:13;;;;;;;9.10;5.97;;;16.90;99.90;;;;;;5051705;28;20049;-79
2021/07/06 02:35:41;;;;;;;9.02;5.68;;;16.90;99.90;;;;;;5067920;28;20056;-79
2021/07/06 02:38:08;;;;;;;9.60;5.80;;;16.90;99.90;;;;;;5067824;28;20095;-80
2021/07/06 02:40:35;;;;;;;11.02;5.60;;;16.90;99.90;;;;;;5068978;28;20045;-79
2021/07/06 02:43:02;;;;;;;9.43;5.55;;;16.90;99.90;;;;;;5050566;28;20123;-79
2021/07/06 02:45:30;;;;;;;8.38;5.70;;;16.90;99.90;;;;;;5035041;28;20073;-80
2021/07/06 02:47:57;;;;;;;9.45;5.65;;;16.90;99.90;;;;;;5067888;28;20500;-79
2021/07/06 02:50:26;;;;;;;14.13;6.15;;;16.90;99.90;;;;;;5068848;28;20073;-79
2021/07/06 02:52:53;;;;;;;8.23;5.60;;;16.90;99.90;;;;;;5034798;28;20071;-80
2021/07/06 02:55:21;;;;;;;9.43;5.85;;;17.00;99.90;;;;;;5051492;28;20125;-80
2021/07/06 02:57:51;;;;;;;8.32;5.15;;;17.00;99.90;;;;;;5051033;28;20508;-79
2021/07/06 03:00:24;;;;;;;8.77;5.43;;;17.00;99.90;;;;;;5035493;28;20060;-80
2021/07/06 03:02:54;;;;;;;7.10;5.32;;;17.00;99.90;;;;;;5068631;28;20046;-79
2021/07/06 03:05:22;;;;;;;9.82;5.50;;;17.00;99.90;;;;;;5051508;28;20049;-80
2021/07/06 03:07:51;;;;;;;6.38;5.38;;;17.00;99.90;;;;;;5034748;28;20120;-79
2021/07/06 03:10:24;;;;;;;8.60;5.20;;;17.00;99.90;;;;;;5035329;28;20041;-79
2021/07/06 03:12:52;;;;;;;7.03;5.00;;;17.00;99.90;;;;;;5050751;28;20053;-80
2021/07/06 03:15:22;;;;;;;6.63;5.18;;;17.00;99.90;;;;;;5068473;28;20536;-79
2021/07/06 03:17:49;;;;;;;8.45;5.47;;;17.00;99.90;;;;;;5050259;28;20482;-79
2021/07/06 03:20:19;;;;;;;7.35;4.75;;;17.00;99.90;;;;;;5034241;28;20046;-80
2021/07/06 03:22:46;;;;;;;8.82;4.97;;;17.00;99.90;;;;;;5050117;28;20041;-80
2021/07/06 03:25:16;;;;;;;9.65;5.05;;;17.00;99.90;;;;;;5068165;28;20335;-80
2021/07/06 03:27:43;;;;;;;10.60;5.05;;;17.00;99.90;;;;;;5049747;28;20069;-80
2021/07/06 03:30:16;;;;;;;7.47;4.45;;;17.00;99.90;;;;;;5050085;28;20088;-80
2021/07/06 03:32:43;;;;;;;7.35;4.93;;;17.10;99.90;;;;;;5049827;28;20057;-80
2021/07/06 03:35:10;;;;;;;7.45;5.30;;;17.10;99.90;;;;;;5050696;28;20045;-80
2021/07/06 03:37:37;;;;;;;5.78;4.47;;;17.10;99.90;;;;;;5050486;28;20080;-80
2021/07/06 03:40:07;;;;;;;8.20;4.43;;;17.10;99.90;;;;;;5034291;28;20069;-79
2021/07/06 03:42:34;;;;;;;6.68;4.78;;;17.10;99.90;;;;;;5050421;28;20049;-80
2021/07/06 03:45:02;;;;;;;6.95;4.50;;;17.10;99.90;;;;;;5068377;28;20122;-80
2021/07/06 03:47:29;;;;;;;9.27;4.30;;;17.20;99.90;;;;;;5034344;28;20084;-80
2021/07/06 03:49:55;;;;;;;6.80;4.40;;;17.20;99.90;;;;;;5017781;28;20065;-79
2021/07/06 03:52:22;;;;;;;7.25;4.40;;;17.20;99.90;;;;;;5018156;28;20128;-80
2021/07/06 03:54:49;;;;;;;6.82;4.10;;;17.20;99.90;;;;;;5033549;28;20120;-80
2021/07/06 03:57:28;;;;;;;9.18;4.70;;;17.20;99.90;;;;;;5050290;28;20069;-80
2021/07/06 04:00:04;;;;;;;6.07;4.45;;;17.20;99.90;;;;;;5051858;28;20041;-80
2021/07/06 04:02:31;;;;;;;6.10;4.07;;;17.30;99.90;;;;;;5034968;28;20045;-80
2021/07/06 04:04:58;;;;;;;9.23;4.55;;;17.20;99.90;;;;;;5017479;28;20112;-80
2021/07/06 04:07:25;;;;;;;6.95;4.03;;;17.30;99.90;;;;;;5017739;28;20057;-80
2021/07/06 04:09:52;;;;;;;5.18;3.90;;;17.30;99.90;;;;;;5050118;28;20482;-80
2021/07/06 04:12:19;;;;;;;6.40;4.07;;;17.30;99.90;;;;;;5034059;28;20073;-80
2021/07/06 04:14:45;;;;;;;7.13;4.30;;;17.20;99.90;;;;;;5033910;28;20045;-80
2021/07/06 04:17:12;;;;;;;6.32;3.83;;;17.30;99.90;;;;;;5017628;28;20045;-80
2021/07/06 04:19:41;;;;;;;5.55;3.78;;;17.30;99.90;;;;;;5017526;28;20053;-80
2021/07/06 04:22:07;;;;;;;6.68;3.95;;;17.30;99.90;;;;;;5050077;28;20041;-80
2021/07/06 04:24:34;;;;;;;4.95;3.50;;;17.30;99.90;;;;;;5017487;28;20041;-79
2021/07/06 04:27:02;;;;;;;5.85;3.88;;;17.40;99.90;;;;;;5033486;28;20080;-80
2021/07/06 04:29:29;;;;;;;6.35;3.92;;;17.30;99.90;;;;;;5033639;28;20072;-80
2021/07/06 04:31:56;;;;;;;6.20;3.80;;;17.30;99.90;;;;;;5017129;28;20075;-80
2021/07/06 04:34:24;;;;;;;6.93;3.65;;;17.30;99.90;;;;;;5033587;28;20103;-80
2021/07/06 04:36:51;;;;;;;6.00;3.67;;;17.20;99.90;;;;;;5033389;28;20096;-80
2021/07/06 04:39:18;;;;;;;5.88;3.25;;;17.20;99.90;;;;;;5049785;28;20049;-80
2021/07/06 04:41:45;;;;;;;6.90;3.47;;;17.30;99.90;;;;;;5067174;28;20378;-80
2021/07/06 04:44:12;;;;;;;7.00;3.30;;;17.30;99.90;;;;;;5049649;28;20124;-80
2021/07/06 04:46:40;;;;;;;7.22;3.20;;;17.40;99.90;;;;;;5033671;28;20441;-80
2021/07/06 04:49:07;;;;;;;7.38;3.70;;;17.40;99.90;;;;;;5033238;28;20064;-80
2021/07/06 04:51:35;;;;;;;4.53;3.00;;;17.40;99.90;;;;;;5033133;28;20417;-80
2021/07/06 04:54:02;;;;;;;4.70;2.90;;;17.40;99.90;;;;;;5049421;28;20061;-81
2021/07/06 04:56:29;;;;;;;5.05;2.65;;;17.50;99.90;;;;;;5049609;28;20049;-80
2021/07/06 04:58:56;;;;;;;4.55;2.72;;;17.60;99.90;;;;;;5033097;28;20041;-80
2021/07/06 05:01:23;;;;;;;7.47;2.60;;;17.60;99.90;;;;;;5049737;28;20088;-80
2021/07/06 05:03:51;;;;;;;3.60;2.40;;;17.70;99.90;;;;;;5049260;28;20046;-80
2021/07/06 05:06:19;;;;;;;5.78;2.72;;;17.80;99.90;;;;;;5051869;28;20129;-80
2021/07/06 05:08:47;;;;;;;6.00;2.28;;;17.80;99.90;;;;;;5053220;28;20400;-80
2021/07/06 05:11:15;;;;;;;6.38;2.30;;;17.90;99.90;;;;;;5021076;28;20626;-80
2021/07/06 05:13:42;;;;;;;4.47;2.08;;;17.90;99.90;;;;;;5053377;28;20069;-80
2021/07/06 05:16:09;;;;;;;5.15;1.88;;;18.00;99.90;;;;;;5053102;28;20045;-79
2021/07/06 05:18:36;;;;;;;4.72;2.00;;;18.00;99.90;;;;;;5053171;28;20046;-80
2021/07/06 05:21:03;;;;;;;5.20;1.90;;;18.10;99.90;;;;;;5036686;28;20053;-80
2021/07/06 05:23:30;;;;;;;3.35;1.88;;;18.20;99.90;;;;;;5036635;28;20056;-80
2021/07/06 05:25:57;;;;;;;7.22;1.90;;;18.30;99.90;;;;;;5052883;28;20045;-81
2021/07/06 05:28:24;;;;;;;4.20;1.73;;;18.30;99.90;;;;;;5036738;28;20481;-80
2021/07/06 05:30:51;;;;;;;3.47;1.70;;;18.30;99.90;;;;;;5036564;28;20517;-81
2021/07/06 05:33:18;;;;;;;4.15;1.83;;;18.40;99.90;;;;;;5052920;28;20076;-81
2021/07/06 05:35:45;;;;;;;3.10;1.65;;;18.40;99.90;;;;;;5052776;28;20049;-81
2021/07/06 05:38:12;;;;;;;3.33;1.60;;;18.40;99.90;;;;;;5036229;28;20073;-80
2021/07/06 05:40:39;;;;;;;3.25;1.60;;;18.50;99.90;;;;;;5036795;28;20117;-81
2021/07/06 05:43:07;;;;;;;3.78;1.70;;;18.60;99.90;;;;;;5036531;28;20134;-81
2021/07/06 05:45:35;;;;;;;3.38;1.65;;;18.70;99.90;;;;;;5052625;28;20496;-81
2021/07/06 05:48:03;;;;;;;3.72;1.52;;;18.70;99.90;;;;;;5052506;28;20065;-81
2021/07/06 05:50:31;;;;;;;4.00;1.60;;;18.90;99.90;;;;;;5052505;28;20504;-80
2021/07/06 05:52:58;;;;;;;4.70;1.50;;;19.00;99.90;;;;;;5019706;28;20053;-80
2021/07/06 05:55:24;;;;;;;3.47;1.75;;;19.20;99.90;;;;;;5037914;28;20452;-83
2021/07/06 05:57:51;;;;;;;4.20;1.55;;;19.30;99.90;;;;;;5019822;28;20096;-82
2021/07/06 06:00:19;;;;;;;3.58;1.50;;;19.40;99.90;;;;;;5036209;28;20055;-79
2021/07/06 06:02:46;;;;;;;3.75;1.50;;;19.40;99.90;;;;;;5052645;28;20050;-81
2021/07/06 06:05:13;;;;;;;4.45;1.75;;;19.40;99.90;;;;;;5019720;28;20464;-81
2021/07/06 06:07:41;;;;;;;3.83;1.90;;;19.50;99.90;;;;;;5052354;28;20041;-80
2021/07/06 06:10:10;;;;;;;8.60;1.90;;;19.50;99.90;;;;;;5052588;28;20072;-80
2021/07/06 06:12:38;;;;;;;4.35;1.60;;;19.50;99.90;;;;;;5052880;28;20490;-81
2021/07/06 06:15:06;;;;;;;7.85;2.03;;;19.40;99.90;;;;;;5069540;28;20053;-80
2021/07/06 06:17:33;;;;;;;3.88;1.63;;;19.40;99.90;;;;;;5035584;28;20045;-81
2021/07/06 06:20:00;;;;;;;4.32;1.45;;;19.40;99.90;;;;;;5035649;28;20052;-81
2021/07/06 06:22:27;;;;;;;6.70;1.80;;;19.30;99.90;;;;;;5035578;28;20050;-80
2021/07/06 06:24:54;;;;;;;5.30;1.80;;;19.20;99.90;;;;;;5019593;28;20430;-80
2021/07/06 06:27:20;;;;;;;4.93;1.52;;;19.20;99.90;;;;;;5019187;28;20501;-81
2021/07/06 06:29:47;;;;;;;2.92;1.52;;;19.10;99.90;;;;;;5054880;28;20115;-81
2021/07/06 06:32:16;;;;;;;3.60;1.70;;;19.10;99.90;;;;;;5055359;28;20405;-81
2021/07/06 06:34:44;;;;;;;3.92;1.58;;;19.00;99.90;;;;;;5072264;28;20103;-80
2021/07/06 06:37:11;;;;;;;5.22;1.73;;;18.90;99.90;;;;;;5062442;28;20453;-81
2021/07/06 06:39:37;;;;;;;5.05;1.77;;;18.80;99.90;;;;;;5063193;28;20116;-81
2021/07/06 06:42:04;;;;;;;8.55;2.50;;;18.80;99.90;;;;;;5030477;28;20057;-82
2021/07/06 06:44:31;;;;;;;8.25;2.05;;;18.70;99.90;;;;;;5019000;28;20069;-80
2021/07/06 06:46:58;;;;;;;5.20;2.05;;;18.60;99.90;;;;;;5034963;28;20100;-82
2021/07/06 06:49:25;;;;;;;5.53;2.00;;;18.50;99.90;;;;;;5036598;28;20397;-80
2021/07/06 06:51:52;;;;;;;5.32;1.92;;;18.40;99.90;;;;;;5044915;28;20056;-83
2021/07/06 06:54:19;;;;;;;3.03;1.80;;;18.40;99.90;;;;;;5040540;28;20167;-82
2021/07/06 06:56:45;;;;;;;4.90;1.73;;;18.50;99.90;;;;;;5054063;28;20048;-82
2021/07/06 06:59:13;;;;;;;4.68;1.70;;;18.40;99.90;;;;;;5054241;28;20049;-85
2021/07/06 07:01:41;;;;;;;3.67;1.80;;;18.40;99.90;;;;;;5054720;28;20071;-82
2021/07/06 07:04:08;;;;;;;3.13;1.70;;;18.50;99.90;;;;;;5055239;28;20041;-82
2021/07/06 07:06:35;;;;;;;2.95;1.90;;;18.50;99.90;;;;;;5034261;28;20129;-82
2021/07/06 07:09:09;;;;;;;6.00;2.00;;;18.50;99.90;;;;;;5049645;28;20128;-82
2021/07/06 07:11:36;;;;;;;2.90;1.70;;;18.50;99.90;;;;;;5051245;28;20073;-81
2021/07/06 07:14:03;;;;;;;4.75;2.17;;;18.50;99.90;;;;;;5034509;28;20073;-81
2021/07/06 07:16:30;;;;;;;4.60;2.05;;;18.50;99.90;;;;;;5051017;28;20041;-81
2021/07/06 07:18:56;;;;;;;4.70;1.85;;;18.50;99.90;;;;;;5050944;28;20041;-82
2021/07/06 07:21:23;;;;;;;6.70;2.20;;;18.50;99.90;;;;;;5018553;28;20045;-82
2021/07/06 07:23:51;;;;;;;4.07;1.77;;;18.50;99.90;;;;;;5034857;28;20497;-85
2021/07/06 07:26:17;;;;;;;6.53;1.88;;;18.50;99.90;;;;;;5034167;28;20049;-82
2021/07/06 07:28:44;;;;;;;4.05;1.70;;;18.50;99.90;;;;;;5033880;28;20073;-81
2021/07/06 07:31:11;;;;;;;4.07;1.75;;;18.60;99.90;;;;;;5034227;28;20095;-81
2021/07/06 07:33:38;;;;;;;5.22;2.10;;;18.60;99.90;;;;;;5034582;28;20054;-81
2021/07/06 07:36:05;;;;;;;4.57;1.73;;;18.70;99.90;;;;;;5050845;28;20045;-81
2021/07/06 07:38:31;;;;;;;5.10;1.70;;;18.70;99.90;;;;;;5034295;28;20397;-80
2021/07/06 07:40:58;;;;;;;5.45;1.88;;;18.80;99.90;;;;;;5034127;28;20125;-82
2021/07/06 07:43:25;;;;;;;6.07;1.90;;;18.80;99.90;;;;;;5050437;28;20080;-80
2021/07/06 07:45:52;;;;;;;3.58;1.42;;;18.80;99.90;;;;;;5034274;28;20052;-81
2021/07/06 07:48:18;;;;;;;5.53;1.95;;;18.90;99.90;;;;;;5050244;28;20080;-82
2021/07/06 07:50:45;;;;;;;9.32;2.05;;;19.00;99.90;;;;;;5034203;28;20050;-81
2021/07/06 07:53:12;;;;;;;5.00;1.50;;;19.00;99.90;;;;;;5050201;28;20048;-81
2021/07/06 07:55:39;;;;;;;5.13;1.85;;;19.00;99.90;;;;;;5034524;28;20099;-80
2021/07/06 07:58:05;;;;;;;4.70;1.60;;;19.10;99.90;;;;;;5034186;28;20052;-81
2021/07/06 08:00:32;;;;;;;4.35;1.90;;;19.10;99.90;;;;;;5018048;28;20509;-80
2021/07/06 08:02:59;;;;;;;5.82;1.50;;;19.20;99.90;;;;;;5020143;28;20045;-81
2021/07/06 08:05:26;;;;;;;5.45;1.83;;;19.20;99.90;;;;;;5033728;28;20056;-80
2021/07/06 08:07:53;;;;;;;5.85;1.50;;;19.20;99.90;;;;;;5050393;28;20072;-80
2021/07/06 08:10:20;;;;;;;4.35;1.75;;;19.20;99.90;;;;;;5034215;28;20049;-81
2021/07/06 08:12:47;;;;;;;5.30;1.70;;;19.30;99.90;;;;;;5050341;28;20124;-81
2021/07/06 08:15:14;;;;;;;2.75;1.48;;;19.30;99.90;;;;;;5033800;28;20049;-81
2021/07/06 08:17:41;;;;;;;5.82;1.60;;;19.30;99.90;;;;;;5033627;28;20069;-81
2021/07/06 08:20:08;;;;;;;5.18;1.63;;;19.30;99.90;;;;;;5049978;28;20450;-81
2021/07/06 08:22:35;;;;;;;5.75;1.80;;;19.30;99.90;;;;;;5050225;28;20041;-81
2021/07/06 08:25:04;;;;;;;8.80;2.03;;;19.40;99.90;;;;;;5035684;28;20063;-81
2021/07/06 08:27:31;;;;;;;3.72;1.63;;;19.40;99.90;;;;;;5035056;28;20041;-81
2021/07/06 08:29:58;;;;;;;3.90;1.50;;;19.40;99.90;;;;;;5050019;28;20041;-81
2021/07/06 08:32:24;;;;;;;5.97;1.70;;;19.50;99.90;;;;;;5049911;28;20049;-80
2021/07/06 08:34:51;;;;;;;4.47;1.90;;;19.50;99.90;;;;;;5050081;28;20418;-81
2021/07/06 08:37:18;;;;;;;5.57;1.98;;;19.60;99.90;;;;;;5033543;28;20473;-80
2021/07/06 08:39:45;;;;;;;5.25;1.60;;;19.60;99.90;;;;;;5035567;28;20516;-80
2021/07/06 08:42:12;;;;;;;4.47;1.75;;;19.70;99.90;;;;;;5037983;28;20042;-81
2021/07/06 08:44:39;;;;;;;5.53;1.70;;;19.70;99.90;;;;;;5021098;28;20057;-80
2021/07/06 08:47:09;;;;;;;2.10;1.40;;;19.80;99.90;;;;;;5037766;28;20053;-81
2021/07/06 08:49:39;;;;;;;4.20;1.65;;;19.90;99.90;;;;;;5053982;28;20046;-80
2021/07/06 08:52:11;;;;;;;7.22;1.80;;;20.00;99.90;;;;;;5053630;28;20046;-81
2021/07/06 08:54:38;;;;;;;4.80;1.50;;;20.10;99.90;;;;;;5053373;28;20129;-81
2021/07/06 08:57:06;;;;;;;4.13;1.40;;;20.10;99.90;;;;;;5053707;28;20045;-81
2021/07/06 08:59:40;;;;;;;4.15;1.60;;;20.20;99.90;;;;;;5037108;28;20042;-80
2021/07/06 09:02:12;;;;;;;4.17;1.67;;;20.30;99.90;;;;;;5037691;28;20048;-80
2021/07/06 09:04:46;;;;;;;3.00;1.50;;;20.30;99.90;;;;;;5053243;28;20041;-81
2021/07/06 09:07:14;;;;;;;3.95;1.50;;;20.40;99.90;;;;;;5053478;28;20054;-81
2021/07/06 09:09:41;;;;;;;5.13;1.73;;;20.50;99.90;;;;;;5036761;28;20050;-82
2021/07/06 09:12:10;;;;;;;4.18;1.42;;;20.50;99.90;;;;;;5053571;28;20083;-81
2021/07/06 09:14:49;;;;;;;3.58;1.30;;;20.60;99.90;;;;;;5037097;28;20525;-81
2021/07/06 09:17:22;;;;;;;5.25;1.60;;;20.60;99.90;;;;;;5053453;28;20045;-81
2021/07/06 09:19:52;;;;;;;2.92;1.45;;;20.70;99.90;;;;;;5053429;28;20410;-80
2021/07/06 09:22:20;;;;;;;4.07;1.65;;;20.70;99.90;;;;;;5052961;28;20397;-83
2021/07/06 09:24:49;;;;;;;5.18;1.75;;;20.70;99.90;;;;;;5052887;28;20486;-81
2021/07/06 09:27:29;;;;;;;3.65;1.45;;;20.70;99.90;;;;;;5037118;28;20049;-81
2021/07/06 09:30:18;;;;;;;3.40;1.52;;;20.70;99.90;;;;;;5053148;28;20077;-82
2021/07/06 09:32:56;;;;;;;4.28;1.20;;;20.80;99.90;;;;;;5052878;28;20052;-80
2021/07/06 09:35:25;;;;;;;2.63;1.30;;;20.80;99.90;;;;;;5059855;28;20120;-81
2021/07/06 09:37:57;;;;;;;2.35;1.20;;;20.80;99.90;;;;;;5045527;28;20037;-81
2021/07/06 09:40:35;;;;;;;6.20;1.40;;;20.90;99.90;;;;;;5036681;28;20049;-82
2021/07/06 09:43:26;;;;;;;2.58;1.40;;;20.90;99.90;;;;;;5052738;28;20398;-79
2021/07/06 09:46:11;;;;;;;7.30;1.55;;;20.80;99.90;;;;;;5052876;28;20049;-77
2021/07/06 09:48:43;;;;;;;;;;;20.90;99.90;;;;;;5052500;28;20041;-74
2021/07/06 09:51:12;;;;;;;4.85;1.40;;;20.90;99.90;;;;;;5069150;28;19917;-75
2021/07/06 09:53:40;;;;;;;3.58;1.17;;;21.00;99.90;;;;;;5035698;28;20045;-74
2021/07/06 09:56:15;;;;;;;4.03;1.10;;;21.00;99.90;;;;;;5032673;28;20034;-75
2021/07/06 09:58:53;;;;;;;5.55;1.50;;;21.10;99.90;;;;;;5061640;28;20045;-74
2021/07/06 10:01:21;;;;;;;4.57;1.30;;;21.10;99.90;;;;;;5067875;28;20065;-73
2021/07/06 10:03:50;;;;;;;5.53;1.60;;;21.20;99.90;;;;;;5069543;28;20045;-77
2021/07/06 10:06:19;;;;;;;3.30;1.20;;;21.20;99.90;;;;;;5069802;28;20072;-75
2021/07/06 10:08:46;;;;;;;1.70;0.98;;;21.20;99.90;;;;;;5052100;28;20111;-76
2021/07/06 10:11:13;;;;;;;3.13;1.30;;;21.30;99.90;;;;;;5070272;28;20152;-76
2021/07/06 10:13:40;;;;;;;2.67;1.00;;;21.30;99.90;;;;;;5052036;28;20128;-77
2021/07/06 10:16:07;;;;;;;2.45;1.10;;;21.40;99.90;;;;;;5052130;28;20049;-76
2021/07/06 10:18:36;;;;;;;3.97;1.10;;;21.50;99.90;;;;;;5052041;28;20073;-78
2021/07/06 10:21:05;;;;;;;5.07;0.90;;;21.70;99.90;;;;;;5052050;28;20083;-79
2021/07/06 10:23:34;;;;;;;4.50;1.27;;;21.80;99.90;;;;;;5069428;28;20038;-79
2021/07/06 10:26:03;;;;;;;5.05;1.27;;;21.90;99.90;;;;;;5051998;28;20056;-74
2021/07/06 10:28:32;;;;;;;4.22;1.25;;;22.00;99.90;;;;;;5051219;28;20048;-76
2021/07/06 10:31:15;;;;;;;3.22;1.00;;;22.20;99.90;;;;;;5035872;28;20448;-76
2021/07/06 10:33:43;;;;;;;3.53;1.10;;;22.40;99.90;;;;;;5035802;28;20128;-82
2021/07/06 10:36:12;;;;;;;6.90;1.13;;;22.50;99.90;;;;;;5035761;28;20123;-81
2021/07/06 10:38:42;;;;;;;3.78;1.00;;;22.60;99.90;;;;;;5035351;28;20042;-81
2021/07/06 10:41:08;;;;;;;3.05;1.15;;;22.60;99.90;;;;;;5051686;28;20069;-84
2021/07/06 10:43:38;;;;;;;4.00;1.10;;;22.50;99.90;;;;;;5051579;28;20080;-88
2021/07/06 10:46:37;;;;;;;2.17;1.00;;;22.70;99.90;;;;;;5051752;28;20474;-80
2021/07/06 10:49:13;;;;;;;1.98;0.90;;;22.80;99.90;;;;;;5043657;28;20129;-81
2021/07/06 10:51:39;;;;;;;2.42;1.00;;;22.80;99.90;;;;;;5051379;28;20045;-78
2021/07/06 10:54:18;;;;;;;4.75;1.00;;;22.70;99.90;;;;;;5051258;28;20509;-78
2021/07/06 10:56:52;;;;;;;2.15;0.90;;;22.70;99.90;;;;;;5068726;28;20061;-77
2021/07/06 10:59:23;;;;;;;7.73;1.30;;;22.90;99.90;;;;;;5069171;28;20486;-73
2021/07/06 11:01:51;;;;;;;3.70;0.90;;;22.90;99.90;;;;;;5050618;28;20464;-73
2021/07/06 11:04:37;;;;;;;4.30;1.08;;;23.00;99.90;;;;;;5050030;28;20053;-75
2021/07/06 11:07:11;;;;;;;1.20;0.70;;;23.20;99.90;;;;;;5051223;28;20119;-76
2021/07/06 11:09:56;;;;;;;4.45;0.80;;;23.30;99.90;;;;;;5069241;28;20045;-88
2021/07/06 11:12:30;;;;;;;5.40;1.02;;;23.60;99.90;;;;;;5052254;28;20045;-82
2021/07/06 11:15:15;;;;;;;7.15;1.10;;;23.70;99.90;;;;;;5038630;28;20053;-93
2021/07/06 11:17:47;;;;;;;4.88;1.08;;;23.70;99.90;;;;;;5069165;28;20045;-94
2021/07/06 11:20:17;;;;;;;3.17;0.80;;;23.70;99.90;;;;;;5069178;28;20399;-84
2021/07/06 11:22:49;;;;;;;4.03;0.90;;;23.60;99.90;;;;;;5050683;28;20526;-87
2021/07/06 11:25:36;;;;;;;4.18;0.88;;;23.50;99.90;;;;;;5068448;28;20049;-87
2021/07/06 11:28:06;;;;;;;2.75;0.80;;;23.70;99.90;;;;;;5051634;28;20042;-89
2021/07/06 11:30:39;;;;;;;3.10;0.88;;;23.60;99.90;;;;;;5051538;28;20589;-87
2021/07/06 11:33:14;;;;;;;3.33;0.80;;;23.50;99.90;;;;;;5051514;28;20053;-88
2021/07/06 11:35:46;;;;;;;3.13;0.93;;;23.50;99.90;;;;;;5051645;28;20049;-90
2021/07/06 11:38:19;;;;;;;6.85;0.98;;;23.30;99.90;;;;;;5052274;28;20497;-92
2021/07/06 11:40:50;;;;;;;9.40;1.27;;;23.40;99.90;;;;;;5069171;28;20485;-91
2021/07/06 11:43:19;;;;;;;3.55;0.90;;;23.40;99.90;;;;;;5052277;28;20049;-91
2021/07/06 11:45:55;;;;;;;3.92;0.90;;;23.40;99.90;;;;;;5051855;28;20050;-91
2021/07/06 11:48:24;;;;;;;2.00;0.77;;;23.70;99.90;;;;;;5051823;28;20048;-89
2021/07/06 11:50:52;;;;;;;5.35;0.98;;;23.80;99.90;;;;;;5051043;28;20500;-90
2021/07/06 11:53:30;;;;;;;2.67;1.00;;;23.70;99.90;;;;;;5035514;28;20061;-91
2021/07/06 11:55:58;;;;;;;2.60;0.98;;;23.70;99.90;;;;;;5052295;28;20052;-89
2021/07/06 11:58:27;;;;;;;2.55;0.88;;;23.60;99.90;;;;;;5036607;28;20056;-91
2021/07/06 12:00:56;;;;;;;9.38;1.17;;;23.60;99.90;;;;;;5052382;28;20494;-90
2021/07/06 12:03:24;;;;;;;4.43;0.90;;;23.70;99.90;;;;;;5020209;28;20053;-90
2021/07/06 12:05:53;;;;;;;2.72;0.90;;;23.80;99.90;;;;;;5051863;28;20504;-92
2021/07/06 12:08:24;;;;;;;3.13;0.80;;;24.00;99.90;;;;;;5069682;28;20049;-91
2021/07/06 12:11:05;;;;;;;2.85;0.70;;;23.80;99.90;;;;;;5052019;28;20053;-91
2021/07/06 12:13:36;;;;;;;4.57;1.00;;;23.80;99.90;;;;;;5052426;28;20147;-90
2021/07/06 12:16:07;;;;;;;2.85;0.90;;;23.80;99.90;;;;;;5051467;28;20046;-91
2021/07/06 12:18:36;;;;;;;2.97;1.02;;;23.70;99.90;;;;;;5052528;28;20398;-91
2021/07/06 12:21:07;;;;;;;7.78;1.23;;;23.90;99.90;;;;;;5052246;28;20045;-91
2021/07/06 12:23:44;;;;;;;5.25;1.15;;;23.60;99.90;;;;;;5052978;28;20468;-92
2021/07/06 12:26:13;;;;;;;3.22;0.80;;;23.50;99.90;;;;;;5037778;28;20075;-94
2021/07/06 12:28:41;;;;;;;5.40;0.90;;;23.30;99.90;;;;;;5052869;28;20466;-93
2021/07/06 12:31:33;;;;;;;2.42;0.80;;;23.10;99.90;;;;;;5037090;28;20056;-92
2021/07/06 12:34:14;;;;;;;3.17;0.88;;;22.70;99.90;;;;;;5069786;28;20405;-92
2021/07/06 12:36:43;;;;;;;2.55;0.90;;;22.60;99.90;;;;;;5052532;28;20498;-92
2021/07/06 12:39:37;;;;;;;5.53;1.00;;;22.40;99.90;;;;;;5070082;28;20038;-92
2021/07/06 12:42:09;;;;;;;2.13;0.98;;;22.30;99.90;;;;;;5066084;28;20049;-92
2021/07/06 12:44:38;;;;;;;3.55;0.90;;;22.20;99.90;;;;;;5052978;28;20045;-91
2021/07/06 12:47:24;;;;;;;2.67;0.90;;;22.10;99.90;;;;;;5052551;28;20042;-92
2021/07/06 12:50:07;;;;;;;3.63;1.05;;;22.20;99.90;;;;;;5052208;28;20494;-91
2021/07/06 12:52:42;;;;;;;1.38;0.70;;;22.30;99.90;;;;;;5048647;28;20101;-91
2021/07/06 12:55:19;;;;;;;4.93;1.10;;;22.80;99.90;;;;;;5032422;28;20049;-91
2021/07/06 12:57:49;;;;;;;3.42;1.00;;;23.20;99.90;;;;;;5033074;28;20049;-91